createdAt,value
2022-09-22T00:01:24.529Z,15.15
2022-09-22T00:04:32.104Z,15.03
2022-09-22T00:07:36.569Z,14.89
2022-09-22T00:10:41.063Z,14.81
2022-09-22T00:14:15.278Z,15.24
2022-09-22T00:17:25.111Z,15.30
2022-09-22T00:20:33.621Z,16.06
2022-09-22T00:23:39.323Z,16.03
2022-09-22T00:26:44.695Z,16.90
2022-09-22T00:29:49.423Z,17.36
2022-09-22T00:32:54.335Z,17.19
2022-09-22T00:36:02.288Z,17.62
2022-09-22T00:39:09.019Z,17.83
2022-09-22T00:42:23.166Z,18.11
2022-09-22T00:45:32.972Z,18.34
2022-09-22T00:48:50.063Z,18.22
2022-09-22T00:52:08.319Z,17.69
2022-09-22T00:55:29.196Z,17.05
2022-09-22T00:58:43.115Z,17.26
2022-09-22T01:01:47.894Z,16.80
2022-09-22T01:04:54.045Z,16.91
2022-09-22T01:07:58.995Z,16.51
2022-09-22T01:11:03.976Z,16.44
2022-09-22T01:14:35.275Z,16.60
2022-09-22T01:18:05.360Z,16.52
2022-09-22T01:21:48.648Z,16.69
2022-09-22T01:25:22.175Z,16.65
2022-09-22T01:28:57.234Z,16.55
2022-09-22T01:32:20.416Z,16.98
2022-09-22T01:35:37.428Z,16.81
2022-09-22T01:39:15.423Z,17.33
2022-09-22T01:42:45.162Z,17.40
2022-09-22T01:45:50.540Z,17.75
2022-09-22T01:49:01.596Z,17.26
2022-09-22T01:52:24.377Z,17.69
2022-09-22T01:55:43.918Z,17.83
2022-09-22T01:58:55.615Z,18.68
2022-09-22T02:02:12.602Z,19.20
2022-09-22T02:06:04.997Z,19.34
2022-09-22T02:09:30.319Z,19.27
2022-09-22T02:12:47.064Z,19.03
2022-09-22T02:16:06.486Z,19.01
2022-09-22T02:19:24.980Z,19.86
2022-09-22T02:22:33.217Z,19.67
2022-09-22T02:25:53.352Z,19.88
2022-09-22T02:29:12.475Z,19.62
2022-09-22T02:32:28.664Z,19.20
2022-09-22T02:35:40.762Z,19.20
2022-09-22T02:39:08.966Z,19.21
2022-09-22T02:42:41.708Z,18.84
2022-09-22T02:46:03.772Z,18.85
2022-09-22T02:49:41.627Z,18.33
2022-09-22T02:52:58.101Z,18.56
2022-09-22T02:56:14.881Z,18.34
2022-09-22T02:59:38.345Z,18.82
2022-09-22T03:02:48.464Z,18.49
2022-09-22T03:06:37.281Z,18.54
2022-09-22T03:10:13.176Z,18.61
2022-09-22T03:13:50.090Z,18.27
2022-09-22T03:17:07.801Z,17.85
2022-09-22T03:20:13.955Z,18.46
2022-09-22T03:23:23.108Z,18.49
2022-09-22T03:26:51.072Z,18.82
2022-09-22T03:30:29.286Z,18.74
2022-09-22T03:34:06.338Z,19.29
2022-09-22T03:37:41.558Z,19.32
2022-09-22T03:40:54.577Z,20.06
2022-09-22T03:44:31.242Z,19.73
2022-09-22T03:48:01.310Z,19.62
2022-09-22T03:51:13.530Z,19.91
2022-09-22T03:54:25.915Z,19.94
2022-09-22T03:57:34.910Z,20.17
2022-09-22T04:00:41.246Z,19.73
2022-09-22T04:03:48.941Z,19.68
2022-09-22T04:07:02.217Z,20.09
2022-09-22T04:10:13.011Z,20.11
2022-09-22T04:13:27.178Z,20.21
2022-09-22T04:16:41.481Z,20.08
2022-09-22T04:20:19.909Z,20.58
2022-09-22T04:23:33.694Z,20.01
2022-09-22T04:26:51.635Z,20.43
2022-09-22T04:33:39.085Z,20.60
2022-09-22T04:36:53.058Z,20.49
2022-09-22T04:40:09.270Z,20.47
2022-09-22T04:43:32.746Z,20.21
2022-09-22T04:46:58.271Z,20.30
2022-09-22T04:50:24.673Z,20.34
2022-09-22T04:53:56.235Z,20.44
2022-09-22T04:57:00.521Z,20.54
2022-09-22T05:00:16.790Z,20.57
2022-09-22T05:03:58.865Z,20.52
2022-09-22T05:07:14.975Z,20.08
2022-09-22T05:10:35.168Z,20.16
2022-09-22T05:13:42.019Z,19.72
2022-09-22T05:17:07.204Z,19.76
2022-09-22T05:20:12.595Z,19.87
2022-09-22T05:23:16.881Z,20.04
2022-09-22T05:26:25.307Z,20.02
2022-09-22T05:29:35.311Z,19.89
2022-09-22T05:32:47.933Z,20.21
2022-09-22T05:35:52.580Z,19.71
2022-09-22T05:39:01.826Z,20.10
2022-09-22T05:42:22.100Z,19.21
2022-09-22T05:45:34.213Z,20.14
2022-09-22T05:48:44.998Z,19.97
2022-09-22T05:51:53.074Z,19.95
2022-09-22T05:55:08.239Z,20.05
2022-09-22T05:58:15.795Z,19.97
2022-09-22T06:01:20.756Z,20.20
2022-09-22T06:04:30.139Z,19.76
2022-09-22T06:07:38.023Z,20.20
2022-09-22T06:11:05.825Z,20.36
2022-09-22T06:14:13.059Z,20.05
2022-09-22T06:17:43.250Z,20.43
2022-09-22T06:20:51.174Z,20.42
2022-09-22T06:24:04.408Z,20.18
2022-09-22T06:27:12.364Z,20.53
2022-09-22T06:30:17.000Z,20.40
2022-09-22T06:33:24.396Z,20.12
2022-09-22T06:36:37.931Z,20.08
2022-09-22T06:39:48.635Z,19.90
2022-09-22T06:43:06.324Z,20.00
2022-09-22T06:46:19.601Z,19.71
2022-09-22T06:49:26.491Z,19.81
2022-09-22T06:52:33.085Z,19.49
2022-09-22T06:55:44.007Z,19.46
2022-09-22T06:59:09.342Z,19.49
2022-09-22T07:02:20.452Z,19.71
2022-09-22T07:05:34.193Z,19.66
2022-09-22T07:08:43.001Z,19.83
2022-09-22T07:12:10.179Z,20.01
2022-09-22T07:15:20.533Z,19.74
2022-09-22T07:18:28.739Z,19.90
2022-09-22T07:21:50.642Z,19.86
2022-09-22T07:25:07.195Z,19.66
2022-09-22T07:28:31.553Z,19.83
2022-09-22T07:31:46.075Z,19.59
2022-09-22T07:34:51.062Z,19.79
2022-09-22T07:38:04.403Z,19.63
2022-09-22T07:41:18.666Z,18.93
2022-09-22T07:44:44.507Z,19.20
2022-09-22T07:48:07.496Z,19.12
2022-09-22T07:51:24.277Z,18.78
2022-09-22T07:54:29.283Z,19.00
2022-09-22T07:57:34.911Z,18.80
2022-09-22T08:00:39.935Z,18.61
2022-09-22T08:03:45.033Z,19.01
2022-09-22T08:06:53.215Z,18.94
2022-09-22T08:09:58.164Z,18.95
2022-09-22T08:13:05.156Z,18.85
2022-09-22T08:16:13.457Z,18.85
2022-09-22T08:19:25.354Z,18.72
2022-09-22T08:22:38.940Z,19.07
2022-09-22T08:25:53.284Z,18.44
2022-09-22T08:29:08.929Z,18.59
2022-09-22T08:32:24.068Z,18.84
2022-09-22T08:35:30.700Z,18.73
2022-09-22T08:38:36.231Z,18.24
2022-09-22T08:42:29.353Z,18.35
2022-09-22T08:45:41.624Z,18.03
2022-09-22T08:49:33.326Z,18.15
2022-09-22T08:52:54.861Z,18.13
2022-09-22T08:56:47.135Z,18.00
2022-09-22T09:00:00.214Z,17.85
2022-09-22T09:03:54.435Z,17.50
2022-09-22T09:07:31.553Z,16.77
2022-09-22T09:11:05.817Z,16.78
2022-09-22T09:14:22.097Z,16.52
2022-09-22T09:17:37.735Z,16.04
2022-09-22T09:20:50.109Z,16.14
2022-09-22T09:27:34.431Z,15.54
2022-09-22T09:30:52.027Z,16.04
2022-09-22T09:34:05.758Z,15.37
2022-09-22T09:37:16.625Z,15.51
2022-09-22T09:40:25.375Z,15.47
2022-09-22T09:43:31.178Z,15.24
2022-09-22T09:46:50.659Z,15.76
2022-09-22T09:49:57.377Z,15.36
2022-09-22T09:53:02.013Z,15.30
2022-09-22T09:56:19.003Z,14.99
2022-09-22T09:59:46.977Z,14.73
2022-09-22T10:03:07.247Z,14.80
2022-09-22T10:06:13.761Z,14.53
2022-09-22T10:09:30.457Z,14.81
2022-09-22T10:12:35.656Z,14.85
2022-09-22T10:15:42.436Z,14.35
2022-09-22T10:18:47.932Z,14.27
2022-09-22T10:21:52.627Z,14.56
2022-09-22T10:25:02.967Z,14.19
2022-09-22T10:28:17.767Z,14.15
2022-09-22T10:31:27.986Z,14.34
2022-09-22T10:34:39.837Z,13.91
2022-09-22T10:37:47.655Z,13.91
2022-09-22T10:41:01.251Z,14.07
2022-09-22T10:47:56.127Z,13.90
2022-09-22T10:51:32.971Z,13.55
2022-09-22T10:54:46.219Z,13.29
2022-09-22T10:58:05.751Z,13.77
2022-09-22T11:01:33.590Z,13.37
2022-09-22T11:05:21.178Z,13.89
2022-09-22T11:08:46.937Z,13.71
2022-09-22T11:12:19.954Z,13.61
2022-09-22T11:15:43.628Z,13.31
2022-09-22T11:19:19.420Z,13.27
2022-09-22T11:22:38.443Z,12.69
2022-09-22T11:26:05.721Z,13.41
2022-09-22T11:29:21.273Z,13.29
2022-09-22T11:32:47.878Z,13.14
2022-09-22T11:36:07.514Z,12.79
2022-09-22T11:39:31.305Z,12.88
2022-09-22T11:42:59.420Z,12.44
2022-09-22T11:46:50.767Z,12.58
2022-09-22T11:50:24.344Z,12.44
2022-09-22T11:53:53.963Z,12.69
2022-09-22T11:57:15.277Z,12.46
2022-09-22T12:00:23.453Z,12.30
2022-09-22T12:03:48.170Z,12.49
2022-09-22T12:07:03.908Z,11.89
2022-09-22T12:10:21.581Z,11.75
2022-09-22T12:13:42.271Z,11.49
2022-09-22T12:17:13.741Z,11.76
2022-09-22T12:21:10.053Z,11.94
2022-09-22T12:24:22.143Z,12.22
2022-09-22T12:27:39.139Z,12.35
2022-09-22T12:31:08.121Z,12.30
2022-09-22T12:34:54.080Z,12.13
2022-09-22T12:38:14.364Z,11.84
2022-09-22T12:41:32.161Z,11.00
2022-09-22T12:44:51.179Z,11.08
2022-09-22T12:48:00.273Z,11.35
2022-09-22T12:51:29.007Z,12.05
2022-09-22T12:54:52.132Z,11.54
2022-09-22T12:58:44.949Z,11.61
2022-09-22T13:02:16.244Z,11.78
2022-09-22T13:05:29.837Z,11.67
2022-09-22T13:08:46.044Z,11.83
2022-09-22T13:12:40.824Z,11.78
2022-09-22T13:16:20.321Z,11.58
2022-09-22T13:19:42.377Z,11.22
2022-09-22T13:23:31.277Z,10.59
2022-09-22T13:27:02.223Z,10.93
2022-09-22T13:30:24.261Z,11.43
2022-09-22T13:33:46.363Z,10.92
2022-09-22T13:37:08.215Z,11.34
2022-09-22T13:40:34.166Z,11.43
2022-09-22T13:44:14.578Z,11.17
2022-09-22T13:47:28.880Z,10.98
2022-09-22T13:50:50.584Z,10.90
2022-09-22T13:54:10.376Z,10.96
2022-09-22T13:57:36.248Z,10.99
2022-09-22T14:01:13.442Z,11.09
2022-09-22T14:04:44.012Z,10.76
2022-09-22T14:08:11.181Z,10.69
2022-09-22T14:11:32.599Z,11.04
2022-09-22T14:14:42.809Z,11.00
2022-09-22T14:17:53.769Z,11.10
2022-09-22T14:21:03.378Z,12.04
2022-09-22T14:24:08.489Z,11.80
2022-09-22T14:27:33.220Z,12.15
2022-09-22T14:30:45.364Z,12.26
2022-09-22T14:33:55.983Z,12.16
2022-09-22T14:37:25.139Z,11.92
2022-09-22T14:40:36.146Z,12.13
2022-09-22T14:43:48.496Z,12.30
2022-09-22T14:47:10.597Z,11.86
2022-09-22T14:50:50.708Z,12.19
2022-09-22T14:54:09.850Z,12.60
2022-09-22T14:57:33.028Z,11.94
2022-09-22T15:01:34.699Z,12.23
2022-09-22T15:04:54.738Z,12.35
2022-09-22T15:08:08.945Z,11.97
2022-09-22T15:11:25.463Z,11.44
2022-09-22T15:18:44.196Z,11.39
2022-09-22T15:22:20.331Z,11.86
2022-09-22T15:26:06.790Z,12.25
2022-09-22T15:29:21.138Z,12.41
2022-09-22T15:33:32.474Z,11.77
2022-09-22T15:41:54.784Z,12.83
2022-09-22T15:44:28.046Z,12.16
2022-09-22T15:48:19.759Z,12.67
2022-09-22T15:51:47.003Z,11.73
2022-09-22T15:55:11.537Z,12.33
2022-09-22T15:58:35.130Z,11.79
2022-09-22T16:01:49.516Z,11.67
2022-09-22T16:05:09.479Z,12.12
2022-09-22T16:08:44.297Z,11.73
2022-09-22T16:12:42.054Z,11.48
2022-09-22T16:15:57.079Z,11.38
2022-09-22T16:19:15.986Z,11.73
2022-09-22T16:22:30.489Z,11.86
2022-09-22T16:26:01.468Z,11.33
2022-09-22T16:29:14.061Z,10.50
2022-09-22T16:32:29.746Z,10.32
2022-09-22T16:36:00.751Z,11.14
2022-09-22T16:39:21.543Z,12.05
2022-09-22T16:42:56.581Z,12.09
2022-09-22T16:46:27.112Z,12.49
2022-09-22T16:49:53.417Z,11.98
2022-09-22T16:53:10.156Z,12.39
2022-09-22T16:56:24.596Z,12.01
2022-09-22T16:59:51.769Z,12.53
2022-09-22T17:03:37.523Z,12.39
2022-09-22T17:06:54.104Z,12.55
2022-09-22T17:11:22.882Z,12.25
2022-09-22T17:14:24.716Z,11.99
2022-09-22T17:17:46.361Z,11.72
2022-09-22T17:21:00.722Z,12.15
2022-09-22T17:24:18.731Z,12.12
2022-09-22T17:27:52.225Z,12.43
2022-09-22T17:31:31.777Z,12.04
2022-09-22T17:35:08.621Z,12.18
2022-09-22T17:39:01.860Z,12.94
2022-09-22T17:42:24.169Z,12.96
2022-09-22T17:45:55.263Z,12.51
2022-09-22T17:49:24.991Z,12.61
2022-09-22T17:52:41.101Z,12.97
2022-09-22T17:56:05.910Z,12.74
2022-09-22T17:59:20.996Z,12.33
2022-09-22T18:02:54.342Z,12.17
2022-09-22T18:06:44.764Z,11.80
2022-09-22T18:10:25.768Z,12.02
2022-09-22T18:13:48.702Z,11.62
2022-09-22T18:17:14.967Z,11.40
2022-09-22T18:20:27.130Z,12.00
2022-09-22T18:23:45.669Z,11.48
2022-09-22T18:26:52.697Z,11.27
2022-09-22T18:30:16.001Z,11.11
2022-09-22T18:33:46.205Z,10.79
2022-09-22T18:37:14.843Z,11.20
2022-09-22T18:40:43.046Z,11.52
2022-09-22T18:43:54.115Z,11.90
2022-09-22T18:47:26.715Z,11.99
2022-09-22T18:50:40.764Z,11.96
2022-09-22T18:54:17.755Z,11.04
2022-09-22T18:57:44.208Z,11.46
2022-09-22T19:01:08.207Z,11.07
2022-09-22T19:04:31.571Z,11.17
2022-09-22T19:07:59.269Z,11.02
2022-09-22T19:11:27.118Z,10.68
2022-09-22T19:15:02.275Z,11.35
2022-09-22T19:18:46.140Z,11.01
2022-09-22T19:21:56.036Z,11.45
2022-09-22T19:25:30.768Z,11.71
2022-09-22T19:29:05.143Z,11.16
2022-09-22T19:32:41.909Z,10.39
2022-09-22T19:36:13.896Z,10.27
2022-09-22T19:39:43.987Z,10.66
2022-09-22T19:43:58.701Z,10.27
2022-09-22T19:46:57.880Z,10.28
2022-09-22T19:53:59.653Z,10.31
2022-09-22T19:57:30.792Z,10.19
2022-09-22T20:00:49.551Z,9.32
2022-09-22T20:04:06.981Z,10.28
2022-09-22T20:11:44.458Z,10.38
2022-09-22T20:18:45.588Z,11.00
2022-09-22T20:22:30.934Z,11.33
2022-09-22T20:25:48.076Z,11.26
2022-09-22T20:33:16.365Z,10.71
2022-09-22T20:42:22.904Z,10.80
2022-09-22T20:53:34.370Z,10.40
2022-09-22T21:02:58.344Z,10.29
2022-09-22T21:21:16.629Z,10.52
2022-09-22T21:25:12.009Z,10.60
2022-09-22T21:28:22.334Z,10.88
2022-09-22T21:32:15.912Z,10.81
2022-09-22T21:40:45.462Z,11.23
2022-09-22T21:44:41.825Z,11.52
2022-09-22T21:53:41.314Z,11.69
2022-09-22T21:56:52.497Z,12.22
2022-09-22T22:00:28.007Z,12.56
2022-09-22T22:03:55.427Z,12.51
2022-09-22T22:07:25.679Z,13.73
2022-09-22T22:10:56.967Z,14.41
2022-09-22T22:14:40.157Z,14.46
2022-09-22T22:18:14.945Z,14.15
2022-09-22T22:22:10.050Z,13.44
2022-09-22T22:26:08.916Z,14.13
2022-09-22T22:29:50.135Z,13.82
2022-09-22T22:33:46.516Z,13.58
2022-09-22T22:37:37.462Z,13.75
2022-09-22T22:40:48.532Z,13.82
2022-09-22T22:45:11.626Z,14.18
2022-09-22T22:48:55.212Z,13.50
2022-09-22T22:52:41.096Z,14.04
2022-09-22T22:56:29.231Z,14.26
2022-09-22T23:00:02.916Z,14.49
2022-09-22T23:03:16.225Z,15.47
2022-09-22T23:06:38.902Z,15.36
2022-09-22T23:09:46.581Z,15.47
2022-09-22T23:13:01.589Z,14.75
2022-09-22T23:16:26.327Z,15.00
2022-09-22T23:19:42.642Z,14.70
2022-09-22T23:23:25.094Z,14.80
2022-09-22T23:26:33.276Z,14.38
2022-09-22T23:29:53.148Z,14.70
2022-09-22T23:32:59.808Z,14.83
2022-09-22T23:36:19.314Z,14.74
2022-09-22T23:39:35.547Z,15.01
2022-09-22T23:42:57.350Z,14.85
2022-09-22T23:46:28.928Z,14.48
2022-09-22T23:50:16.420Z,14.56
2022-09-22T23:54:45.862Z,15.03
2022-09-22T23:57:48.265Z,14.92
